Time;durP1;ratioP1;P1;durP2;ratioP2;P2;SDS_P1;SDS_P2;PMS_P1;PMS_P2;Temp;Humidity;BMP_temperature;BMP_pressure;BME280_temperature;BME280_humidity;BME280_pressure;Samples;Min_cycle;Max_cycle;Signal;HPM_P1;HPM_P2
2021/04/19 00:01:51;;;;;;;5.60;3.13;;;8.40;95.30;;;;;;5036330;28;20025;-87
2021/04/19 00:04:17;;;;;;;5.15;3.00;;;8.30;95.40;;;;;;5004594;28;20457;-85
2021/04/19 00:06:43;;;;;;;7.63;3.42;;;8.30;95.50;;;;;;5011906;28;20429;-86
2021/04/19 00:09:10;;;;;;;6.55;3.50;;;8.20;95.70;;;;;;5014261;28;20042;-86
2021/04/19 00:11:36;;;;;;;7.05;3.70;;;8.20;96.00;;;;;;5028739;28;20029;-86
2021/04/19 00:14:04;;;;;;;7.15;3.78;;;8.10;96.10;;;;;;5016418;28;20045;-87
2021/04/19 00:16:30;;;;;;;6.88;3.75;;;8.10;96.10;;;;;;5019854;28;20045;-86
2021/04/19 00:18:56;;;;;;;8.10;3.85;;;8.00;96.30;;;;;;5010698;28;20036;-85
2021/04/19 00:21:23;;;;;;;6.57;3.83;;;8.00;96.40;;;;;;5006405;28;20028;-87
2021/04/19 00:23:49;;;;;;;6.75;4.10;;;8.00;96.60;;;;;;5035440;28;20018;-86
2021/04/19 00:26:15;;;;;;;7.85;3.90;;;7.90;96.70;;;;;;5005099;28;20033;-86
2021/04/19 00:28:43;;;;;;;7.93;4.15;;;7.80;96.70;;;;;;5013432;28;20049;-87
2021/04/19 00:31:10;;;;;;;6.32;3.53;;;7.80;96.90;;;;;;5026195;28;20034;-87
2021/04/19 00:33:36;;;;;;;6.65;3.70;;;7.80;97.00;;;;;;5021288;28;20026;-88
2021/04/19 00:36:03;;;;;;;7.22;3.80;;;7.80;97.00;;;;;;5034198;28;20029;-86
2021/04/19 00:38:29;;;;;;;6.25;3.42;;;7.80;97.10;;;;;;5040014;28;20080;-86
2021/04/19 00:40:57;;;;;;;5.63;3.25;;;7.70;97.10;;;;;;5022899;28;20494;-87
2021/04/19 00:43:24;;;;;;;5.40;3.17;;;7.80;97.20;;;;;;5040847;28;20024;-87
2021/04/19 00:45:52;;;;;;;5.55;3.40;;;7.80;97.20;;;;;;5021686;28;20033;-87
2021/04/19 00:48:19;;;;;;;5.57;3.50;;;7.80;97.30;;;;;;5021646;28;20025;-87
2021/04/19 00:50:46;;;;;;;7.85;3.92;;;7.80;97.40;;;;;;5022201;28;20030;-86
2021/04/19 00:53:14;;;;;;;5.93;3.65;;;7.70;97.40;;;;;;5021594;28;20018;-86
2021/04/19 00:55:40;;;;;;;7.00;3.67;;;7.70;97.50;;;;;;5021865;28;20452;-86
2021/04/19 00:58:07;;;;;;;6.43;3.67;;;7.70;97.60;;;;;;5023222;28;20469;-87
2021/04/19 01:00:35;;;;;;;7.53;4.38;;;7.70;97.60;;;;;;5041544;28;20462;-85
2021/04/19 01:03:02;;;;;;;7.15;3.40;;;7.60;97.70;;;;;;5038498;28;20025;-87
2021/04/19 01:05:32;;;;;;;6.65;3.90;;;7.60;97.70;;;;;;5023023;28;20047;-86
2021/04/19 01:07:58;;;;;;;8.20;4.15;;;7.60;97.90;;;;;;5021071;28;20037;-86
2021/04/19 01:10:24;;;;;;;8.50;4.57;;;7.50;98.00;;;;;;5036565;28;20029;-86
2021/04/19 01:12:51;;;;;;;6.93;3.83;;;7.50;98.20;;;;;;5036121;28;20021;-86
2021/04/19 01:15:18;;;;;;;8.23;4.68;;;7.40;98.20;;;;;;5014702;28;20103;-88
2021/04/19 01:17:46;;;;;;;8.15;4.30;;;7.40;98.30;;;;;;5016233;28;20052;-87
2021/04/19 01:20:16;;;;;;;7.85;4.70;;;7.40;98.50;;;;;;5031972;28;20037;-88
2021/04/19 01:22:43;;;;;;;5.68;3.72;;;7.30;98.50;;;;;;5031492;28;20109;-88
2021/04/19 01:25:14;;;;;;;7.32;4.22;;;7.30;98.60;;;;;;5031555;28;20116;-87
2021/04/19 01:27:40;;;;;;;6.95;4.13;;;7.30;98.70;;;;;;5031568;28;20133;-87
2021/04/19 01:30:07;;;;;;;9.25;4.18;;;7.20;98.80;;;;;;5016038;28;20117;-87
2021/04/19 01:32:33;;;;;;;6.85;4.30;;;7.20;98.80;;;;;;5015758;28;20092;-87
2021/04/19 01:34:59;;;;;;;8.35;4.57;;;7.10;99.00;;;;;;5030274;28;20029;-87
2021/04/19 01:37:25;;;;;;;7.30;4.50;;;7.10;99.10;;;;;;5015552;28;20030;-87
2021/04/19 01:39:51;;;;;;;7.60;4.45;;;7.00;99.20;;;;;;5031102;28;20470;-87
2021/04/19 01:42:17;;;;;;;6.97;4.00;;;7.00;99.20;;;;;;5030855;28;20466;-87
2021/04/19 01:44:43;;;;;;;9.75;4.90;;;7.00;99.30;;;;;;5030889;28;20121;-86
2021/04/19 01:47:10;;;;;;;8.65;4.38;;;7.00;99.40;;;;;;5031070;28;20529;-87
2021/04/19 01:49:36;;;;;;;6.88;4.47;;;7.00;99.40;;;;;;5031427;28;20021;-87
2021/04/19 01:52:05;;;;;;;8.52;5.43;;;6.90;99.50;;;;;;5030851;28;20037;-87
2021/04/19 01:54:31;;;;;;;9.55;5.30;;;6.90;99.70;;;;;;5031607;28;20022;-86
2021/04/19 01:56:57;;;;;;;10.32;5.20;;;6.80;99.80;;;;;;5031906;28;20030;-87
2021/04/19 01:59:24;;;;;;;8.68;4.38;;;6.80;99.90;;;;;;5015703;28;20025;-88
2021/04/19 02:02:14;;;;;;;10.43;5.28;;;6.80;99.90;;;;;;5030713;28;20022;-88
2021/04/19 02:05:15;;;;;;;10.73;4.90;;;6.80;99.90;;;;;;5014043;28;20125;-87
2021/04/19 02:08:06;;;;;;;7.72;5.18;;;6.70;99.90;;;;;;5030508;28;20056;-88
2021/04/19 02:10:53;;;;;;;9.23;5.40;;;6.70;99.90;;;;;;5014506;28;20033;-86
2021/04/19 02:13:45;;;;;;;9.45;5.75;;;6.60;99.90;;;;;;5030644;28;20029;-86
2021/04/19 02:16:18;;;;;;;9.40;5.65;;;6.60;99.90;;;;;;5030447;28;20089;-86
2021/04/19 02:18:58;;;;;;;9.63;5.40;;;6.60;99.90;;;;;;5014138;28;20037;-88
2021/04/19 02:21:58;;;;;;;9.30;5.07;;;6.50;99.90;;;;;;5030129;28;20493;-87
2021/04/19 02:24:26;;;;;;;8.20;5.03;;;6.50;99.90;;;;;;5013158;28;20393;-88
2021/04/19 02:26:56;;;;;;;8.63;5.18;;;6.50;99.90;;;;;;5030495;28;20044;-87
2021/04/19 02:29:42;;;;;;;8.50;4.70;;;6.50;99.90;;;;;;5015078;28;20033;-87
2021/04/19 02:32:13;;;;;;;9.90;5.65;;;6.50;99.90;;;;;;5030539;28;20026;-86
2021/04/19 02:34:40;;;;;;;10.05;5.97;;;6.40;99.90;;;;;;5030762;28;20026;-85
2021/04/19 02:37:10;;;;;;;10.20;6.32;;;6.40;99.90;;;;;;5015540;28;20026;-85
2021/04/19 02:39:48;;;;;;;9.15;5.45;;;6.40;99.90;;;;;;5029933;28;20041;-85
2021/04/19 02:42:19;;;;;;;7.57;5.00;;;6.40;99.90;;;;;;5029678;28;20105;-87
2021/04/19 02:44:49;;;;;;;7.90;5.15;;;6.40;99.90;;;;;;5029897;28;20042;-85
2021/04/19 02:47:17;;;;;;;8.13;4.57;;;6.40;99.90;;;;;;5014687;28;20030;-85
2021/04/19 02:49:44;;;;;;;8.93;5.50;;;6.40;99.90;;;;;;5029901;28;20029;-86
2021/04/19 02:52:11;;;;;;;7.55;4.97;;;6.40;99.90;;;;;;5014549;28;20053;-86
2021/04/19 02:54:40;;;;;;;10.65;5.35;;;6.40;99.90;;;;;;5029801;28;20084;-86
2021/04/19 02:57:31;;;;;;;7.55;4.50;;;6.40;99.90;;;;;;5029856;28;20117;-86
2021/04/19 02:59:59;;;;;;;8.77;5.30;;;6.40;99.90;;;;;;5029763;28;20030;-86
2021/04/19 03:02:28;;;;;;;9.90;5.85;;;6.30;99.90;;;;;;5012531;28;20045;-86
2021/04/19 03:04:55;;;;;;;8.15;5.30;;;6.30;99.90;;;;;;5029756;28;20026;-87
2021/04/19 03:07:28;;;;;;;11.43;5.75;;;6.20;99.90;;;;;;5029652;28;20034;-86
2021/04/19 03:10:00;;;;;;;13.25;6.97;;;6.30;99.90;;;;;;5029646;28;20030;-86
2021/04/19 03:12:36;;;;;;;9.98;6.35;;;6.20;99.90;;;;;;5029420;28;20022;-87
2021/04/19 03:15:10;;;;;;;10.25;6.28;;;6.20;99.90;;;;;;5029767;28;20137;-86
2021/04/19 03:17:40;;;;;;;13.25;6.80;;;6.20;99.90;;;;;;5030051;28;20022;-87
2021/04/19 03:20:22;;;;;;;9.00;5.53;;;6.20;99.90;;;;;;5016036;28;20117;-88
2021/04/19 03:22:50;;;;;;;7.68;5.22;;;6.20;99.90;;;;;;4997354;28;20031;-87
2021/04/19 03:25:18;;;;;;;9.23;5.20;;;6.20;99.90;;;;;;5001587;28;20446;-87
2021/04/19 03:27:47;;;;;;;8.38;5.28;;;6.20;99.90;;;;;;4998957;28;20050;-87
2021/04/19 03:30:15;;;;;;;10.52;5.50;;;6.20;99.90;;;;;;4998592;28;20382;-88
2021/04/19 03:32:51;;;;;;;10.85;5.90;;;6.10;99.90;;;;;;5007048;28;20561;-86
2021/04/19 03:35:23;;;;;;;9.82;6.22;;;6.10;99.90;;;;;;5007839;28;20018;-88
2021/04/19 03:37:53;;;;;;;10.70;5.75;;;6.00;99.90;;;;;;5011826;28;20030;-86
2021/04/19 03:40:34;;;;;;;9.50;5.90;;;6.00;99.90;;;;;;5005747;28;20474;-87
2021/04/19 03:43:09;;;;;;;9.38;5.90;;;6.00;99.90;;;;;;5025250;28;20068;-86
2021/04/19 03:45:38;;;;;;;12.40;6.53;;;6.00;99.90;;;;;;5026083;28;20096;-87
2021/04/19 03:48:14;;;;;;;10.43;6.13;;;5.90;99.90;;;;;;5009489;28;20040;-86
2021/04/19 03:50:59;;;;;;;10.05;6.45;;;5.90;99.90;;;;;;5007791;28;20042;-86
2021/04/19 03:53:26;;;;;;;9.30;5.53;;;5.90;99.90;;;;;;5009898;28;20027;-87
2021/04/19 03:55:56;;;;;;;9.85;6.78;;;5.80;99.90;;;;;;5008080;28;20022;-88
2021/04/19 03:58:25;;;;;;;10.15;6.72;;;5.80;99.90;;;;;;5011663;28;20023;-88
2021/04/19 04:00:53;;;;;;;10.35;6.65;;;5.80;99.90;;;;;;5013950;28;20117;-87
2021/04/19 04:03:21;;;;;;;11.07;7.03;;;5.80;99.90;;;;;;5013969;28;20026;-87
2021/04/19 04:05:52;;;;;;;11.52;7.50;;;5.70;99.90;;;;;;5001695;28;20034;-88
2021/04/19 04:08:20;;;;;;;12.95;7.90;;;5.70;99.90;;;;;;5011608;28;20019;-87
2021/04/19 04:10:49;;;;;;;11.20;7.05;;;5.80;99.90;;;;;;5018133;28;20029;-87
2021/04/19 04:13:17;;;;;;;11.35;6.63;;;5.80;99.90;;;;;;5031104;28;20026;-87
2021/04/19 04:15:57;;;;;;;10.45;7.22;;;5.90;99.90;;;;;;5029154;28;20461;-87
2021/04/19 04:18:30;;;;;;;12.98;7.80;;;5.90;99.90;;;;;;5013703;28;20058;-87
2021/04/19 04:20:56;;;;;;;11.13;7.20;;;5.90;99.90;;;;;;5025832;28;20033;-87
2021/04/19 04:23:28;;;;;;;10.43;6.80;;;5.90;99.90;;;;;;5018550;28;20109;-87
2021/04/19 04:25:55;;;;;;;11.07;6.95;;;6.00;99.90;;;;;;5018082;28;20665;-87
2021/04/19 04:28:22;;;;;;;10.27;6.72;;;5.90;99.90;;;;;;5013402;28;20482;-87
2021/04/19 04:30:48;;;;;;;10.82;7.30;;;6.00;99.90;;;;;;5012136;28;20029;-87
2021/04/19 04:33:14;;;;;;;10.27;7.13;;;6.00;99.90;;;;;;5024441;28;20026;-88
2021/04/19 04:35:40;;;;;;;14.75;8.85;;;6.00;99.90;;;;;;5020214;28;20072;-88
2021/04/19 04:38:06;;;;;;;13.68;8.82;;;6.10;99.90;;;;;;5024027;28;20477;-89
2021/04/19 04:40:34;;;;;;;11.60;7.75;;;6.10;99.90;;;;;;5028347;28;20543;-88
2021/04/19 04:43:08;;;;;;;12.00;7.18;;;6.10;99.90;;;;;;4999838;28;20029;-89
2021/04/19 04:45:35;;;;;;;12.57;8.73;;;6.20;99.90;;;;;;5002843;28;20034;-88
2021/04/19 04:48:19;;;;;;;13.50;8.77;;;6.20;99.90;;;;;;5010196;28;20026;-88
2021/04/19 04:50:57;;;;;;;14.20;8.93;;;6.20;99.90;;;;;;5028192;28;20124;-87
2021/04/19 04:53:48;;;;;;;17.88;9.02;;;6.30;99.90;;;;;;4996302;28;20042;-89
2021/04/19 04:56:16;;;;;;;12.45;8.30;;;6.30;99.90;;;;;;4993367;28;20030;-86
2021/04/19 04:58:48;;;;;;;16.13;9.43;;;6.30;99.90;;;;;;5024416;28;20184;-87
2021/04/19 05:01:14;;;;;;;13.77;8.45;;;6.30;99.90;;;;;;5014962;28;20032;-86
2021/04/19 05:03:42;;;;;;;15.25;9.55;;;6.30;99.90;;;;;;5010195;28;20034;-86
2021/04/19 05:06:09;;;;;;;16.17;8.82;;;6.40;99.90;;;;;;5020643;28;20035;-86
2021/04/19 05:08:39;;;;;;;12.65;8.57;;;6.40;99.90;;;;;;5009355;28;20466;-87
2021/04/19 05:11:06;;;;;;;13.18;9.07;;;6.40;99.90;;;;;;5015328;28;20599;-87
2021/04/19 05:13:32;;;;;;;13.07;7.88;;;6.40;99.90;;;;;;5028347;28;20176;-88
2021/04/19 05:15:58;;;;;;;15.07;9.00;;;6.40;99.90;;;;;;5014820;28;20139;-87
2021/04/19 05:18:25;;;;;;;13.20;8.55;;;6.40;99.90;;;;;;5009696;28;20038;-88
2021/04/19 05:20:51;;;;;;;12.52;8.50;;;6.50;99.90;;;;;;5012770;28;20065;-87
2021/04/19 05:23:18;;;;;;;13.68;9.13;;;6.50;99.90;;;;;;5020523;28;20505;-88
2021/04/19 05:25:46;;;;;;;14.27;9.68;;;6.50;99.90;;;;;;5009032;28;20026;-87
2021/04/19 05:28:18;;;;;;;15.55;10.57;;;6.50;99.90;;;;;;4994129;28;20049;-89
2021/04/19 05:30:50;;;;;;;16.48;10.38;;;6.50;99.90;;;;;;5008277;28;20034;-88
2021/04/19 05:33:17;;;;;;;14.93;9.60;;;6.50;99.90;;;;;;5014445;28;20116;-88
2021/04/19 05:35:45;;;;;;;17.02;10.75;;;6.50;99.90;;;;;;5003732;28;20065;-89
2021/04/19 05:38:15;;;;;;;15.57;9.90;;;6.50;99.90;;;;;;5016821;28;20041;-89
2021/04/19 05:40:45;;;;;;;13.68;9.35;;;6.50;99.90;;;;;;5011028;28;20026;-88
2021/04/19 05:43:13;;;;;;;13.60;8.88;;;6.50;99.90;;;;;;5009668;28;20225;-88
2021/04/19 05:45:42;;;;;;;12.70;9.05;;;6.50;99.90;;;;;;5013939;28;20398;-87
2021/04/19 05:48:09;;;;;;;16.33;10.85;;;6.50;99.90;;;;;;5028563;28;20033;-86
2021/04/19 05:50:35;;;;;;;18.48;11.15;;;6.50;99.90;;;;;;5027625;28;20037;-88
2021/04/19 05:53:03;;;;;;;14.68;8.98;;;6.50;99.90;;;;;;5027406;28;20022;-86
2021/04/19 05:55:31;;;;;;;16.42;10.55;;;6.50;99.90;;;;;;5009851;28;20068;-86
2021/04/19 05:58:03;;;;;;;15.63;10.10;;;6.40;99.90;;;;;;5021997;28;20042;-87
2021/04/19 06:00:40;;;;;;;14.35;9.65;;;6.40;99.90;;;;;;4997314;28;20069;-86
2021/04/19 06:03:20;;;;;;;15.82;10.63;;;6.40;99.90;;;;;;5027702;28;20022;-87
2021/04/19 06:06:06;;;;;;;16.85;12.25;;;6.40;99.90;;;;;;4996859;28;20504;-88
2021/04/19 06:09:10;;;;;;;16.65;11.60;;;6.30;99.90;;;;;;5018162;28;20033;-87
2021/04/19 06:11:59;;;;;;;15.65;10.25;;;6.40;99.90;;;;;;5020235;28;20046;-88
2021/04/19 06:14:35;;;;;;;14.65;9.75;;;6.40;99.90;;;;;;5009650;28;20546;-88
2021/04/19 06:17:03;;;;;;;15.68;10.85;;;6.40;99.90;;;;;;5011382;28;20283;-88
2021/04/19 06:19:37;;;;;;;14.73;10.18;;;6.50;99.90;;;;;;5003625;28;20454;-89
2021/04/19 06:22:05;;;;;;;15.60;10.45;;;6.50;99.90;;;;;;5022028;28;20026;-88
2021/04/19 06:24:31;;;;;;;18.25;12.05;;;6.50;99.90;;;;;;5026367;28;20053;-89
2021/04/19 06:27:00;;;;;;;16.55;12.25;;;6.60;99.90;;;;;;5009312;28;20525;-90
2021/04/19 06:29:31;;;;;;;15.13;11.30;;;6.70;99.90;;;;;;5019069;28;20124;-89
2021/04/19 06:32:01;;;;;;;16.88;12.15;;;6.80;99.90;;;;;;4988162;28;20037;-88
2021/04/19 06:34:28;;;;;;;20.02;13.55;;;6.80;99.90;;;;;;5004354;28;20560;-89
2021/04/19 06:36:57;;;;;;;16.73;12.02;;;6.90;99.90;;;;;;4989864;28;20030;-88
2021/04/19 06:39:25;;;;;;;14.95;10.68;;;6.90;99.90;;;;;;4991790;28;20061;-89
2021/04/19 06:41:55;;;;;;;17.10;12.20;;;6.90;99.90;;;;;;4988296;28;20366;-88
2021/04/19 06:44:23;;;;;;;22.65;14.48;;;6.90;99.90;;;;;;4981366;28;20042;-88
2021/04/19 06:46:58;;;;;;;17.20;12.48;;;6.90;99.90;;;;;;4983590;28;20086;-87
2021/04/19 06:49:26;;;;;;;16.48;11.38;;;6.90;99.90;;;;;;4994522;28;20494;-89
2021/04/19 06:51:57;;;;;;;18.13;12.23;;;6.90;99.90;;;;;;5003177;28;20057;-88
2021/04/19 06:54:28;;;;;;;22.15;15.68;;;6.90;99.90;;;;;;4998185;28;20034;-87
2021/04/19 06:57:06;;;;;;;18.33;13.57;;;6.90;99.90;;;;;;4989823;28;20069;-90
2021/04/19 06:59:42;;;;;;;20.92;14.07;;;6.80;99.90;;;;;;4998863;28;20066;-89
2021/04/19 07:02:22;;;;;;;18.35;13.93;;;6.80;99.90;;;;;;4991691;28;20141;-89
2021/04/19 07:04:53;;;;;;;18.40;13.40;;;6.80;99.90;;;;;;4986215;28;20026;-88
2021/04/19 07:07:59;;;;;;;22.55;14.48;;;6.80;99.90;;;;;;4992549;28;20108;-90
2021/04/19 07:10:33;;;;;;;20.23;13.18;;;6.80;99.90;;;;;;4967250;28;20035;-89
2021/04/19 07:13:20;;;;;;;18.48;12.63;;;6.90;99.90;;;;;;4979932;28;20030;-89
2021/04/19 07:15:53;;;;;;;14.40;10.20;;;7.00;99.90;;;;;;5008469;28;20134;-88
2021/04/19 07:18:27;;;;;;;15.33;10.00;;;7.10;99.90;;;;;;5021085;28;20037;-88
2021/04/19 07:21:04;;;;;;;15.90;10.30;;;7.40;99.90;;;;;;4985228;28;20090;-89
2021/04/19 07:23:39;;;;;;;17.27;12.30;;;7.70;99.90;;;;;;5027413;28;20080;-89
2021/04/19 07:26:08;;;;;;;17.10;11.70;;;7.90;99.90;;;;;;5001092;28;20045;-88
2021/04/19 07:28:37;;;;;;;17.67;12.30;;;8.10;99.90;;;;;;5014047;28;20038;-88
2021/04/19 07:31:06;;;;;;;16.58;12.32;;;8.20;99.90;;;;;;4996396;28;20042;-89
2021/04/19 07:33:38;;;;;;;17.00;12.20;;;8.30;99.90;;;;;;5007629;28;20077;-89
2021/04/19 07:36:29;;;;;;;20.43;13.27;;;8.40;99.90;;;;;;5002516;28;20026;-89
2021/04/19 07:39:15;;;;;;;17.38;12.82;;;8.70;99.90;;;;;;5002657;28;20052;-88
2021/04/19 07:41:59;;;;;;;16.00;12.25;;;8.90;99.90;;;;;;5003068;28;20068;-88
2021/04/19 07:44:47;;;;;;;16.08;11.52;;;9.10;99.90;;;;;;5008539;28;20030;-89
2021/04/19 07:47:32;;;;;;;14.68;11.20;;;9.10;99.90;;;;;;4990078;28;20043;-90
2021/04/19 07:50:23;;;;;;;19.23;12.43;;;9.10;99.90;;;;;;4993850;28;20029;-89
2021/04/19 07:53:04;;;;;;;18.13;12.88;;;9.20;99.90;;;;;;4998759;28;20474;-87
2021/04/19 07:55:47;;;;;;;18.13;13.50;;;9.30;99.90;;;;;;4994124;28;20084;-89
2021/04/19 07:58:32;;;;;;;15.45;11.52;;;9.50;99.90;;;;;;5002624;28;20548;-87
2021/04/19 08:01:11;;;;;;;19.77;14.10;;;9.60;99.90;;;;;;5002142;28;20039;-88
2021/04/19 08:03:45;;;;;;;18.35;13.23;;;9.70;99.90;;;;;;4992594;28;20038;-89
2021/04/19 08:06:25;;;;;;;17.40;11.95;;;9.90;99.90;;;;;;5009562;28;20446;-88
2021/04/19 08:09:09;;;;;;;14.20;11.18;;;10.00;99.90;;;;;;5010120;28;20065;-89
2021/04/19 08:11:45;;;;;;;16.45;11.20;;;10.10;99.90;;;;;;5026752;28;20029;-88
2021/04/19 08:14:25;;;;;;;16.55;13.30;;;10.30;99.90;;;;;;5012252;28;20046;-88
2021/04/19 08:17:10;;;;;;;20.25;14.55;;;10.30;99.90;;;;;;4993403;28;20576;-86
2021/04/19 08:19:42;;;;;;;15.23;12.13;;;10.30;99.90;;;;;;5010239;28;20030;-86
2021/04/19 08:22:31;;;;;;;17.35;12.80;;;10.40;99.90;;;;;;5008524;28;20109;-86
2021/04/19 08:25:26;;;;;;;19.90;15.82;;;10.50;99.90;;;;;;5007880;28;20041;-87
2021/04/19 08:28:29;;;;;;;21.30;15.90;;;10.60;99.90;;;;;;4991909;28;20050;-87
2021/04/19 08:30:58;;;;;;;19.45;14.95;;;10.60;99.90;;;;;;4955770;28;20034;-86
2021/04/19 08:33:29;;;;;;;21.42;14.55;;;10.50;99.90;;;;;;5002614;28;20038;-86
2021/04/19 08:36:04;;;;;;;18.05;14.05;;;10.50;99.90;;;;;;5020570;28;20058;-86
2021/04/19 08:38:36;;;;;;;15.45;13.10;;;10.50;99.90;;;;;;5013400;28;20029;-87
2021/04/19 08:41:04;;;;;;;15.70;12.80;;;10.50;99.90;;;;;;5010612;28;20034;-87
2021/04/19 08:43:38;;;;;;;14.82;12.13;;;10.50;99.90;;;;;;5015347;28;20483;-87
2021/04/19 08:46:07;;;;;;;16.23;12.60;;;10.60;99.90;;;;;;5008574;28;20025;-87
2021/04/19 08:48:34;;;;;;;16.63;12.60;;;10.80;99.90;;;;;;4990015;28;20033;-87
2021/04/19 08:51:05;;;;;;;18.20;14.02;;;10.80;99.90;;;;;;4992450;28;20100;-88
2021/04/19 08:53:32;;;;;;;19.33;14.82;;;10.70;99.90;;;;;;5013400;28;20076;-88
2021/04/19 08:56:00;;;;;;;17.92;14.00;;;10.60;99.90;;;;;;5009646;28;20027;-88
2021/04/19 08:58:29;;;;;;;16.00;11.68;;;10.50;99.90;;;;;;5009547;28;20033;-88
2021/04/19 09:00:59;;;;;;;15.38;10.70;;;10.60;99.90;;;;;;5007464;28;20026;-89
2021/04/19 09:03:26;;;;;;;13.98;10.30;;;10.70;99.90;;;;;;5002611;28;20049;-88
2021/04/19 09:05:52;;;;;;;14.60;10.05;;;10.90;99.90;;;;;;5005381;28;20026;-88
2021/04/19 09:08:19;;;;;;;15.65;11.25;;;11.00;99.90;;;;;;5013566;28;20042;-90
2021/04/19 09:11:10;;;;;;;11.23;9.15;;;11.20;99.90;;;;;;5011565;28;20033;-88
2021/04/19 09:13:44;;;;;;;13.65;10.40;;;11.40;99.90;;;;;;5009765;28;20091;-86
2021/04/19 09:16:24;;;;;;;12.90;9.20;;;11.50;99.90;;;;;;5012516;28;20057;-88
2021/04/19 09:19:02;;;;;;;11.80;8.93;;;11.60;99.90;;;;;;4995954;28;20021;-87
2021/04/19 09:21:50;;;;;;;14.00;10.10;;;11.60;99.90;;;;;;5023280;28;20029;-89
2021/04/19 09:24:23;;;;;;;11.68;9.27;;;11.80;99.90;;;;;;5011451;28;20445;-88
2021/04/19 09:26:58;;;;;;;10.60;8.05;;;12.00;99.90;;;;;;5001594;28;20034;-88
2021/04/19 09:29:48;;;;;;;11.75;8.65;;;12.20;99.90;;;;;;5016403;28;20121;-90
2021/04/19 09:32:30;;;;;;;13.85;10.10;;;12.20;99.90;;;;;;5012947;28;20045;-88
2021/04/19 09:34:58;;;;;;;11.95;9.10;;;12.10;99.90;;;;;;5008179;28;20042;-88
2021/04/19 09:37:43;;;;;;;13.20;9.98;;;12.10;99.90;;;;;;5015017;28;20021;-88
2021/04/19 09:40:25;;;;;;;12.02;9.98;;;12.10;99.90;;;;;;5019178;28;20019;-88
2021/04/19 09:43:06;;;;;;;11.95;9.05;;;12.10;99.90;;;;;;5009587;28;20093;-86
2021/04/19 09:45:54;;;;;;;11.30;8.75;;;12.20;99.90;;;;;;5015461;28;20101;-89
2021/04/19 09:48:30;;;;;;;12.73;10.10;;;12.50;99.90;;;;;;5003036;28;20037;-88
2021/04/19 09:51:20;;;;;;;12.48;9.40;;;12.70;99.90;;;;;;4999301;28;20045;-90
2021/04/19 09:54:00;;;;;;;11.25;9.57;;;12.80;99.90;;;;;;4978066;28;20037;-87
2021/04/19 09:56:37;;;;;;;11.55;8.27;;;12.90;99.90;;;;;;5011984;28;20041;-88
2021/04/19 09:59:31;;;;;;;10.40;8.57;;;13.00;99.90;;;;;;5011307;28;20040;-89
2021/04/19 10:02:00;;;;;;;9.23;7.40;;;13.10;99.90;;;;;;5012068;28;20378;-89
2021/04/19 10:04:42;;;;;;;9.52;7.95;;;13.80;99.90;;;;;;5001483;28;20121;-88
2021/04/19 10:07:18;;;;;;;8.55;7.60;;;14.70;99.90;;;;;;5017480;28;20096;-89
2021/04/19 10:09:52;;;;;;;7.05;6.35;;;15.90;99.90;;;;;;5031038;28;20037;-90
2021/04/19 10:12:31;;;;;;;7.85;6.10;;;17.00;99.90;;;;;;5020602;28;20026;-88
2021/04/19 10:15:08;;;;;;;7.57;6.05;;;17.50;99.90;;;;;;5005208;28;20109;-89
2021/04/19 10:17:44;;;;;;;6.90;6.20;;;17.00;99.60;;;;;;5039688;28;20156;-90
2021/04/19 10:20:29;;;;;;;7.25;5.70;;;17.00;99.80;;;;;;5008211;28;20060;-90
2021/04/19 10:23:11;;;;;;;6.65;5.40;;;17.00;99.20;;;;;;5015507;28;20185;-90
2021/04/19 10:25:58;;;;;;;8.60;6.43;;;16.70;99.30;;;;;;5028555;28;20029;-88
2021/04/19 10:28:38;;;;;;;7.53;6.20;;;16.40;99.20;;;;;;5004955;28;20497;-87
2021/04/19 10:31:34;;;;;;;7.03;5.63;;;15.90;99.10;;;;;;5031391;28;20036;-87
2021/04/19 10:34:11;;;;;;;6.60;5.35;;;15.40;99.60;;;;;;4978059;28;20039;-88
2021/04/19 10:36:48;;;;;;;7.93;6.57;;;15.10;99.90;;;;;;4973271;28;20102;-89
2021/04/19 10:39:20;;;;;;;8.75;6.68;;;14.90;99.90;;;;;;5016657;28;20048;-90
2021/04/19 10:41:51;;;;;;;8.02;6.53;;;15.20;99.90;;;;;;5005253;28;20030;-89
2021/04/19 10:44:37;;;;;;;8.40;6.93;;;15.90;99.50;;;;;;5012918;28;20381;-89
2021/04/19 10:47:11;;;;;;;7.28;6.32;;;16.10;98.60;;;;;;5004575;28;20037;-90
2021/04/19 10:49:43;;;;;;;7.15;6.32;;;16.20;98.60;;;;;;5024192;28;20030;-89
2021/04/19 10:52:11;;;;;;;6.97;5.65;;;16.80;98.20;;;;;;5013350;28;20033;-90
2021/04/19 10:54:43;;;;;;;6.15;5.50;;;18.00;97.70;;;;;;4984397;28;20029;-89
2021/04/19 10:57:26;;;;;;;6.93;6.22;;;19.00;96.50;;;;;;5032175;28;20094;-91
2021/04/19 10:59:53;;;;;;;7.88;6.90;;;19.50;94.60;;;;;;5018045;28;20033;-88
2021/04/19 11:02:28;;;;;;;8.43;7.13;;;19.20;93.90;;;;;;5029171;28;20238;-88
2021/04/19 11:04:56;;;;;;;6.60;5.70;;;18.90;93.90;;;;;;5018472;28;20026;-90
2021/04/19 11:07:30;;;;;;;8.25;7.32;;;19.40;94.30;;;;;;4997685;28;20030;-91
2021/04/19 11:10:27;;;;;;;9.25;5.88;;;19.80;92.90;;;;;;5009462;28;20132;-87
2021/04/19 11:12:57;;;;;;;6.13;5.18;;;19.70;92.60;;;;;;4991257;28;20047;-90
2021/04/19 11:15:35;;;;;;;6.10;4.80;;;19.10;92.50;;;;;;5015654;28;20081;-89
2021/04/19 11:18:22;;;;;;;5.95;4.43;;;18.50;93.00;;;;;;5015620;28;20029;-89
2021/04/19 11:21:03;;;;;;;5.75;4.93;;;18.10;93.60;;;;;;5002960;28;20022;-89
2021/04/19 11:23:32;;;;;;;5.75;4.55;;;17.80;94.10;;;;;;5008341;28;20513;-89
2021/04/19 11:26:11;;;;;;;5.82;4.57;;;17.60;94.10;;;;;;4989825;28;20061;-90
2021/04/19 11:28:45;;;;;;;5.18;4.43;;;17.50;94.00;;;;;;4989585;28;20029;-89
2021/04/19 11:32:00;;;;;;;6.25;4.07;;;18.40;94.00;;;;;;5000533;28;20034;-91
2021/04/19 11:34:34;;;;;;;4.32;3.40;;;19.60;93.10;;;;;;5017621;28;20056;-91
2021/04/19 11:37:00;;;;;;;5.07;4.22;;;19.40;92.30;;;;;;5024159;28;20021;-91
2021/04/19 11:39:30;;;;;;;5.80;4.50;;;19.70;92.10;;;;;;5006281;28;20045;-91
2021/04/19 11:41:56;;;;;;;4.25;3.75;;;19.90;91.50;;;;;;5012027;28;20034;-93
2021/04/19 11:44:50;;;;;;;5.10;4.30;;;20.50;91.00;;;;;;5016000;28;20032;-91
2021/04/19 11:47:20;;;;;;;5.47;4.50;;;21.60;90.40;;;;;;5002616;28;20030;-90
2021/04/19 11:49:53;;;;;;;4.47;3.42;;;21.70;88.30;;;;;;5010400;28;20046;-90
2021/04/19 11:52:20;;;;;;;3.92;3.35;;;21.00;88.70;;;;;;4999853;28;20058;-90
2021/04/19 11:54:46;;;;;;;4.47;3.70;;;20.10;89.80;;;;;;5006940;28;20030;-89
2021/04/19 11:57:14;;;;;;;4.43;3.63;;;19.30;90.30;;;;;;5021237;28;20576;-90
2021/04/19 11:59:40;;;;;;;4.03;3.47;;;18.60;90.90;;;;;;5004945;28;20029;-90
2021/04/19 12:02:08;;;;;;;4.65;3.83;;;17.90;91.20;;;;;;5030258;28;20096;-90
2021/04/19 12:04:35;;;;;;;4.80;3.95;;;17.40;91.90;;;;;;4998911;28;20030;-91
2021/04/19 12:07:02;;;;;;;5.47;4.05;;;16.90;92.30;;;;;;4998397;28;20367;-90
2021/04/19 12:09:31;;;;;;;4.85;3.70;;;16.50;92.90;;;;;;5029781;28;20041;-90
2021/04/19 12:12:02;;;;;;;5.45;4.10;;;16.20;93.10;;;;;;5009238;28;20032;-91
2021/04/19 12:14:29;;;;;;;5.60;4.47;;;15.90;93.40;;;;;;4994586;28;20019;-90
2021/04/19 12:17:09;;;;;;;4.93;4.10;;;15.70;93.80;;;;;;5004710;28;20060;-90
2021/04/19 12:19:37;;;;;;;4.57;3.88;;;15.50;94.00;;;;;;5008981;28;20125;-90
2021/04/19 12:22:09;;;;;;;5.20;4.38;;;15.40;94.30;;;;;;5000135;28;20049;-92
2021/04/19 12:24:35;;;;;;;6.30;5.15;;;15.30;94.20;;;;;;5002744;28;20097;-90
2021/04/19 12:27:09;;;;;;;5.32;3.95;;;15.20;94.30;;;;;;5019614;28;20023;-90
2021/04/19 12:29:35;;;;;;;6.65;4.10;;;15.20;94.50;;;;;;5013081;28;20041;-90
2021/04/19 12:32:02;;;;;;;4.80;3.70;;;15.20;94.70;;;;;;5010968;28;20037;-90
2021/04/19 12:34:29;;;;;;;5.80;4.45;;;15.20;94.70;;;;;;5014063;28;20041;-90
2021/04/19 12:37:00;;;;;;;19.83;5.32;;;15.20;94.60;;;;;;5025743;28;20026;-89
2021/04/19 12:39:30;;;;;;;15.35;5.13;;;15.20;94.80;;;;;;5034733;28;20049;-88
2021/04/19 12:41:57;;;;;;;14.15;4.78;;;15.20;94.90;;;;;;5009528;28;20041;-89
2021/04/19 12:44:25;;;;;;;6.93;4.93;;;15.30;94.90;;;;;;5015180;28;20072;-90
2021/04/19 12:47:11;;;;;;;5.80;4.57;;;15.30;95.10;;;;;;5009204;28;20363;-90
2021/04/19 12:49:44;;;;;;;7.25;4.97;;;15.30;95.30;;;;;;5025618;28;20108;-90
2021/04/19 12:52:10;;;;;;;5.93;4.65;;;15.20;95.30;;;;;;5009352;28;20026;-90
2021/04/19 12:54:39;;;;;;;10.77;5.43;;;15.20;95.20;;;;;;5026344;28;20049;-90
2021/04/19 12:57:05;;;;;;;8.02;4.90;;;15.30;95.20;;;;;;5024927;28;20489;-88
2021/04/19 12:59:32;;;;;;;5.97;4.47;;;15.30;95.30;;;;;;5040975;28;20022;-89
2021/04/19 13:02:07;;;;;;;6.20;4.57;;;15.30;95.30;;;;;;5011567;28;20552;-90
2021/04/19 13:04:38;;;;;;;7.05;5.35;;;15.40;95.40;;;;;;5008977;28;20033;-90
2021/04/19 13:07:10;;;;;;;6.78;5.30;;;15.40;95.10;;;;;;5020445;28;20038;-89
2021/04/19 13:09:37;;;;;;;6.67;5.20;;;15.50;94.90;;;;;;5014539;28;20034;-88
2021/04/19 13:12:12;;;;;;;6.57;5.07;;;15.50;94.80;;;;;;5009493;28;20050;-90
2021/04/19 13:14:41;;;;;;;6.90;5.82;;;15.60;94.50;;;;;;5019320;28;20069;-90
2021/04/19 13:17:11;;;;;;;6.88;5.68;;;15.80;94.40;;;;;;5004951;28;20054;-87